createdAt,value
2022-12-23T00:01:19.682Z,16.60
2022-12-23T00:03:46.452Z,13.80
2022-12-23T00:06:15.811Z,14.07
2022-12-23T00:08:43.373Z,12.77
2022-12-23T00:11:14.480Z,15.45
2022-12-23T00:13:57.341Z,13.27
2022-12-23T00:16:24.058Z,13.65
2022-12-23T00:18:50.748Z,13.98
2022-12-23T00:21:18.175Z,14.13
2022-12-23T00:23:47.818Z,15.15
2022-12-23T00:26:22.415Z,14.73
2022-12-23T00:28:52.491Z,14.27
2022-12-23T00:31:19.957Z,14.35
2022-12-23T00:33:49.541Z,15.70
2022-12-23T00:36:22.716Z,14.10
2022-12-23T00:39:05.622Z,13.75
2022-12-23T00:41:47.971Z,13.48
2022-12-23T00:44:14.697Z,13.10
2022-12-23T00:46:41.469Z,13.50
2022-12-23T00:49:23.408Z,12.77
2022-12-23T00:51:53.466Z,12.07
2022-12-23T00:54:20.134Z,12.00
2022-12-23T00:56:46.795Z,11.30
2022-12-23T00:59:13.437Z,11.07
2022-12-23T01:01:55.638Z,11.07
2022-12-23T01:04:37.813Z,12.68
2022-12-23T01:07:05.482Z,13.75
2022-12-23T01:09:32.170Z,15.32
2022-12-23T01:11:58.841Z,13.95
2022-12-23T01:14:25.858Z,14.52
2022-12-23T01:16:52.892Z,14.45
2022-12-23T01:19:19.551Z,16.33
2022-12-23T01:21:46.213Z,15.52
2022-12-23T01:24:12.908Z,17.35
2022-12-23T01:26:39.548Z,18.77
2022-12-23T01:29:06.149Z,16.77
2022-12-23T01:31:32.809Z,17.88
2022-12-23T01:33:59.500Z,17.88
2022-12-23T01:36:26.214Z,15.25
2022-12-23T01:38:52.854Z,18.70
2022-12-23T01:41:43.084Z,19.63
2022-12-23T01:44:40.236Z,22.45
2022-12-23T01:47:12.283Z,19.92
2022-12-23T01:49:40.237Z,23.08
2022-12-23T01:52:07.066Z,23.38
2022-12-23T01:54:35.098Z,21.27
2022-12-23T01:57:01.903Z,22.40
2022-12-23T01:59:43.805Z,21.48
2022-12-23T02:02:25.898Z,19.83
2022-12-23T02:04:53.680Z,19.00
2022-12-23T02:07:36.381Z,20.25
2022-12-23T02:10:04.689Z,20.88
2022-12-23T02:12:46.824Z,19.15
2022-12-23T02:15:48.138Z,18.88
2022-12-23T02:18:36.265Z,19.08
2022-12-23T02:21:18.087Z,21.50
2022-12-23T02:24:04.583Z,21.23
2022-12-23T02:26:50.844Z,19.75
2022-12-23T02:29:49.869Z,18.45
2022-12-23T02:32:45.608Z,20.30
2022-12-23T02:35:30.714Z,20.58
2022-12-23T02:38:05.024Z,22.27
2022-12-23T02:40:58.915Z,22.02
2022-12-23T02:43:29.994Z,22.52
2022-12-23T02:45:56.670Z,22.35
2022-12-23T02:48:30.020Z,20.33
2022-12-23T02:50:59.139Z,20.65
2022-12-23T02:53:30.875Z,21.70
2022-12-23T02:56:00.261Z,21.55
2022-12-23T02:58:32.151Z,21.17
2022-12-23T03:01:01.317Z,20.23
2022-12-23T03:03:28.482Z,22.08
2022-12-23T03:05:56.024Z,22.40
2022-12-23T03:08:27.995Z,21.42
2022-12-23T03:11:05.540Z,22.15
2022-12-23T03:14:02.641Z,22.48
2022-12-23T03:17:08.109Z,21.98
2022-12-23T03:20:03.112Z,19.67
2022-12-23T03:22:45.285Z,19.65
2022-12-23T03:25:21.671Z,18.52
2022-12-23T03:28:04.650Z,19.25
2022-12-23T03:30:33.133Z,18.90
2022-12-23T03:33:05.307Z,19.52
2022-12-23T03:35:39.935Z,21.17
2022-12-23T03:38:07.738Z,20.63
2022-12-23T03:40:39.105Z,20.77
2022-12-23T03:43:12.113Z,18.65
2022-12-23T03:45:46.684Z,19.17
2022-12-23T03:48:30.570Z,20.63
2022-12-23T03:51:03.226Z,18.60
2022-12-23T03:53:34.569Z,19.70
2022-12-23T03:56:07.222Z,19.20
2022-12-23T03:58:54.761Z,18.08
2022-12-23T04:01:32.448Z,18.67
2022-12-23T04:04:26.413Z,19.48
2022-12-23T04:07:00.916Z,17.88
2022-12-23T04:09:28.800Z,19.10
2022-12-23T04:11:58.129Z,19.45
2022-12-23T04:14:24.818Z,18.63
2022-12-23T04:16:55.134Z,17.48
2022-12-23T04:19:22.086Z,16.52
2022-12-23T04:21:48.821Z,16.10
2022-12-23T04:24:15.509Z,17.30
2022-12-23T04:26:43.407Z,18.38
2022-12-23T04:29:13.244Z,17.00
2022-12-23T04:31:39.931Z,16.92
2022-12-23T04:34:06.566Z,19.50
2022-12-23T04:36:33.449Z,20.30
2022-12-23T04:39:02.143Z,19.17
2022-12-23T04:41:28.827Z,18.48
2022-12-23T04:43:55.454Z,19.92
2022-12-23T04:46:22.127Z,20.00
2022-12-23T04:48:48.790Z,20.27
2022-12-23T04:51:15.443Z,22.02
2022-12-23T04:53:45.255Z,18.98
2022-12-23T04:56:11.905Z,19.83
2022-12-23T04:58:38.603Z,22.40
2022-12-23T05:01:07.791Z,21.60
2022-12-23T05:03:34.663Z,22.60
2022-12-23T05:06:01.690Z,21.77
2022-12-23T05:08:28.365Z,21.65
2022-12-23T05:10:55.186Z,20.83
2022-12-23T05:13:22.358Z,21.15
2022-12-23T05:15:51.240Z,21.20
2022-12-23T05:18:17.946Z,20.73
2022-12-23T05:20:44.553Z,21.95
2022-12-23T05:23:11.520Z,20.65
2022-12-23T05:25:39.184Z,22.80
2022-12-23T05:28:09.537Z,21.55
2022-12-23T05:30:36.217Z,23.00
2022-12-23T05:33:03.000Z,23.42
2022-12-23T05:35:29.637Z,23.70
2022-12-23T05:37:57.793Z,21.58
2022-12-23T05:40:27.330Z,23.00
2022-12-23T05:42:59.249Z,22.42
2022-12-23T05:45:25.964Z,21.10
2022-12-23T05:47:52.834Z,20.00
2022-12-23T05:50:19.476Z,21.30
2022-12-23T05:52:46.133Z,22.35
2022-12-23T05:55:12.771Z,22.95
2022-12-23T05:57:39.426Z,23.63
2022-12-23T06:00:06.897Z,23.17
2022-12-23T06:02:33.698Z,23.02
2022-12-23T06:05:00.397Z,22.92
2022-12-23T06:07:27.020Z,22.08
2022-12-23T06:09:53.742Z,21.27
2022-12-23T06:12:20.413Z,22.60
2022-12-23T06:14:47.414Z,20.88
2022-12-23T06:17:14.448Z,20.13
2022-12-23T06:19:41.212Z,19.08
2022-12-23T06:22:07.813Z,21.10
2022-12-23T06:24:34.480Z,20.27
2022-12-23T06:27:01.140Z,17.25
2022-12-23T06:29:27.973Z,18.40
2022-12-23T06:31:54.708Z,17.33
2022-12-23T06:34:21.578Z,18.77
2022-12-23T06:36:48.687Z,17.38
2022-12-23T06:39:15.385Z,17.73
2022-12-23T06:41:41.992Z,18.60
2022-12-23T06:44:09.397Z,20.15
2022-12-23T06:46:36.409Z,19.60
2022-12-23T06:49:10.919Z,19.17
2022-12-23T06:51:39.625Z,18.30
2022-12-23T06:54:06.535Z,19.88
2022-12-23T06:56:33.893Z,19.27
2022-12-23T06:59:00.500Z,21.38
2022-12-23T07:01:27.164Z,20.90
2022-12-23T07:03:53.819Z,19.08
2022-12-23T07:06:20.572Z,19.50
2022-12-23T07:08:47.173Z,17.45
2022-12-23T07:11:13.826Z,18.55
2022-12-23T07:13:41.030Z,20.60
2022-12-23T07:16:09.256Z,20.50
2022-12-23T07:18:36.518Z,23.95
2022-12-23T07:21:03.694Z,16.90
2022-12-23T07:23:30.968Z,17.00
2022-12-23T07:25:57.628Z,17.52
2022-12-23T07:28:24.536Z,18.63
2022-12-23T07:30:51.381Z,18.85
2022-12-23T07:33:18.279Z,16.88
2022-12-23T07:35:44.928Z,18.65
2022-12-23T07:38:11.612Z,18.48
2022-12-23T07:40:38.276Z,21.35
2022-12-23T07:43:05.689Z,19.63
2022-12-23T07:45:32.372Z,20.17
2022-12-23T07:48:01.391Z,19.55
2022-12-23T07:50:28.508Z,18.13
2022-12-23T07:52:55.967Z,19.55
2022-12-23T07:55:22.938Z,19.80
2022-12-23T07:57:50.915Z,20.52
2022-12-23T08:00:19.001Z,20.98
2022-12-23T08:02:46.379Z,17.30
2022-12-23T08:05:14.393Z,17.67
2022-12-23T08:07:41.348Z,17.83
2022-12-23T08:10:08.747Z,20.98
2022-12-23T08:12:35.374Z,25.10
2022-12-23T08:15:02.069Z,23.15
2022-12-23T08:17:30.110Z,24.15
2022-12-23T08:19:57.349Z,23.65
2022-12-23T08:22:24.687Z,23.83
2022-12-23T08:24:52.633Z,26.02
2022-12-23T08:27:19.404Z,26.63
2022-12-23T08:29:49.260Z,26.80
2022-12-23T08:32:15.848Z,23.73
2022-12-23T08:34:42.505Z,26.17
2022-12-23T08:37:09.244Z,26.88
2022-12-23T08:39:36.028Z,28.85
2022-12-23T08:42:03.824Z,30.27
2022-12-23T08:44:31.110Z,30.42
2022-12-23T08:46:57.931Z,28.13
2022-12-23T08:49:24.600Z,29.55
2022-12-23T08:51:51.414Z,29.48
2022-12-23T08:54:22.244Z,19.30
2022-12-23T08:56:48.885Z,17.85
2022-12-23T08:59:19.684Z,18.30
2022-12-23T09:01:47.673Z,17.20
2022-12-23T09:04:14.639Z,19.33
2022-12-23T09:06:42.737Z,19.35
2022-12-23T09:09:12.992Z,24.52
2022-12-23T09:11:40.063Z,16.83
2022-12-23T09:14:08.565Z,18.20
2022-12-23T09:16:35.591Z,17.45
2022-12-23T09:19:02.565Z,19.70
2022-12-23T09:21:29.365Z,19.75
2022-12-23T09:23:56.075Z,21.42
2022-12-23T09:26:26.607Z,22.42
2022-12-23T09:28:53.442Z,41.70
2022-12-23T09:31:21.081Z,35.95
2022-12-23T09:33:49.463Z,29.58
2022-12-23T09:36:16.682Z,24.85
2022-12-23T09:38:43.616Z,23.38
2022-12-23T09:41:46.357Z,23.90
2022-12-23T09:44:28.449Z,23.45
2022-12-23T09:46:59.997Z,25.20
2022-12-23T09:49:27.480Z,28.63
2022-12-23T09:52:00.280Z,26.55
2022-12-23T09:54:31.001Z,24.52
2022-12-23T09:57:04.039Z,31.88
2022-12-23T09:59:31.621Z,29.52
2022-12-23T10:02:05.081Z,25.25
2022-12-23T10:04:37.334Z,28.50
2022-12-23T10:07:17.559Z,28.88
2022-12-23T10:09:47.589Z,32.17
2022-12-23T10:12:27.736Z,30.95
2022-12-23T10:14:59.414Z,32.90
2022-12-23T10:17:30.811Z,34.58
2022-12-23T10:20:01.647Z,30.52
2022-12-23T10:22:41.108Z,26.33
2022-12-23T10:25:17.847Z,27.52
2022-12-23T10:27:45.209Z,25.08
2022-12-23T10:30:42.454Z,27.40
2022-12-23T10:33:23.149Z,26.77
2022-12-23T10:36:15.393Z,26.52
2022-12-23T10:39:00.103Z,24.73
2022-12-23T10:41:57.281Z,25.63
2022-12-23T10:44:49.539Z,28.20
2022-12-23T10:47:25.400Z,28.85
2022-12-23T10:50:22.611Z,29.02
2022-12-23T10:52:50.452Z,28.25
2022-12-23T10:55:31.379Z,30.10
2022-12-23T10:58:06.752Z,32.55
2022-12-23T11:00:38.172Z,32.65
2022-12-23T11:03:18.091Z,32.97
2022-12-23T11:05:46.149Z,34.67
2022-12-23T11:08:12.894Z,34.90
2022-12-23T11:10:40.217Z,35.25
2022-12-23T11:13:07.076Z,33.90
2022-12-23T11:15:38.494Z,34.53
2022-12-23T11:18:06.711Z,34.90
2022-12-23T11:20:35.788Z,30.85
2022-12-23T11:23:04.965Z,30.00
2022-12-23T11:25:46.920Z,27.80
2022-12-23T11:28:17.427Z,27.70
2022-12-23T11:31:08.110Z,29.42
2022-12-23T11:33:39.989Z,31.38
2022-12-23T11:36:15.917Z,29.42
2022-12-23T11:39:17.880Z,30.92
2022-12-23T11:41:49.280Z,32.05
2022-12-23T11:44:34.271Z,30.30
2022-12-23T11:47:19.436Z,28.55
2022-12-23T11:49:49.688Z,30.65
2022-12-23T11:52:20.914Z,29.02
2022-12-23T11:54:54.953Z,32.75
2022-12-23T11:57:38.247Z,28.95
2022-12-23T12:00:08.619Z,32.58
2022-12-23T12:02:41.818Z,33.28
2022-12-23T12:05:22.979Z,32.03
2022-12-23T12:07:51.061Z,29.77
2022-12-23T12:10:25.561Z,29.95
2022-12-23T12:12:56.588Z,29.25
2022-12-23T12:15:40.428Z,28.92
2022-12-23T12:18:11.964Z,28.50
2022-12-23T12:20:45.613Z,29.25
2022-12-23T12:23:22.623Z,31.20
2022-12-23T12:25:59.878Z,30.95
2022-12-23T12:28:37.672Z,29.30
2022-12-23T12:31:26.797Z,30.05
2022-12-23T12:33:57.533Z,28.38
2022-12-23T12:36:39.467Z,28.50
2022-12-23T12:39:18.103Z,28.33
2022-12-23T12:41:58.435Z,28.27
2022-12-23T12:44:38.231Z,29.90
2022-12-23T12:47:36.306Z,32.30
2022-12-23T12:50:06.568Z,34.67
2022-12-23T12:52:40.674Z,33.30
2022-12-23T12:55:21.903Z,33.72
2022-12-23T12:57:48.736Z,33.70
2022-12-23T13:00:20.128Z,33.08
2022-12-23T13:02:47.831Z,30.95
2022-12-23T13:05:30.975Z,28.25
2022-12-23T13:08:14.769Z,28.63
2022-12-23T13:10:49.759Z,27.50
2022-12-23T13:13:42.155Z,27.88
2022-12-23T13:16:36.503Z,26.42
2022-12-23T13:19:19.427Z,27.48
2022-12-23T13:21:56.420Z,26.92
2022-12-23T13:24:53.406Z,24.83
2022-12-23T13:27:41.683Z,27.75
2022-12-23T13:30:13.252Z,31.63
2022-12-23T13:33:10.617Z,26.67
2022-12-23T13:35:52.594Z,24.42
2022-12-23T13:38:49.758Z,23.58
2022-12-23T13:41:39.572Z,26.85
2022-12-23T13:44:09.656Z,29.67
2022-12-23T13:46:37.348Z,30.25
2022-12-23T13:49:24.391Z,32.03
2022-12-23T13:51:51.990Z,30.40
2022-12-23T13:54:33.891Z,33.63
2022-12-23T13:57:09.567Z,33.70
2022-12-23T13:59:41.152Z,28.88
2022-12-23T14:02:38.508Z,32.90
2022-12-23T14:05:10.500Z,30.70
2022-12-23T14:07:44.594Z,33.22
2022-12-23T14:10:21.621Z,30.23
2022-12-23T14:12:49.983Z,37.78
2022-12-23T14:15:32.023Z,31.95
2022-12-23T14:18:29.279Z,34.35
2022-12-23T14:21:04.751Z,29.73
2022-12-23T14:24:05.452Z,30.27
2022-12-23T14:26:50.347Z,27.38
2022-12-23T14:29:52.020Z,24.20
2022-12-23T14:32:26.700Z,27.33
2022-12-23T14:35:18.157Z,25.63
2022-12-23T14:38:04.886Z,23.75
2022-12-23T14:40:52.450Z,29.73
2022-12-23T14:43:30.597Z,27.67
2022-12-23T14:45:59.990Z,26.85
2022-12-23T14:48:46.722Z,28.27
2022-12-23T14:51:14.348Z,26.42
2022-12-23T14:54:00.826Z,26.88
2022-12-23T14:56:51.582Z,25.02
2022-12-23T14:59:19.220Z,26.85
2022-12-23T15:01:50.480Z,23.00
2022-12-23T15:04:19.723Z,27.83
2022-12-23T15:06:52.145Z,29.35
2022-12-23T15:09:24.970Z,34.25
2022-12-23T15:11:52.864Z,38.15
2022-12-23T15:14:31.450Z,26.33
2022-12-23T15:16:58.306Z,26.83
2022-12-23T15:19:27.479Z,23.52
2022-12-23T15:22:22.325Z,20.98
2022-12-23T15:24:52.249Z,22.00
2022-12-23T15:27:29.767Z,28.05
2022-12-23T15:29:57.785Z,29.95
2022-12-23T15:32:25.438Z,34.95
2022-12-23T15:34:55.014Z,23.80
2022-12-23T15:37:27.586Z,26.60
2022-12-23T15:40:03.373Z,24.08
2022-12-23T15:42:38.304Z,19.52
2022-12-23T15:45:38.656Z,23.00
2022-12-23T15:48:21.932Z,21.95
2022-12-23T15:50:50.002Z,21.88
2022-12-23T15:53:18.930Z,24.52
2022-12-23T15:55:48.870Z,38.00
2022-12-23T15:58:20.475Z,31.90
2022-12-23T16:00:57.595Z,26.75
2022-12-23T16:03:34.136Z,20.25
2022-12-23T16:06:16.764Z,19.60
2022-12-23T16:08:45.730Z,21.65
2022-12-23T16:11:16.373Z,20.67
2022-12-23T16:14:00.247Z,21.90
2022-12-23T16:16:39.212Z,22.55
2022-12-23T16:19:06.768Z,23.58
2022-12-23T16:21:36.509Z,23.95
2022-12-23T16:24:08.733Z,29.77
2022-12-23T16:26:42.303Z,27.42
2022-12-23T16:29:10.301Z,31.65
2022-12-23T16:31:45.702Z,24.27
2022-12-23T16:34:17.030Z,21.25
2022-12-23T16:36:43.674Z,22.15
2022-12-23T16:39:25.929Z,25.58
2022-12-23T16:41:52.529Z,38.67
2022-12-23T16:44:19.378Z,27.85
2022-12-23T16:46:49.641Z,26.65
2022-12-23T16:49:19.475Z,21.27
2022-12-23T16:51:46.886Z,23.05
2022-12-23T16:54:16.495Z,23.63
2022-12-23T16:56:46.964Z,28.77
2022-12-23T16:59:14.417Z,20.80
2022-12-23T17:01:45.327Z,19.23
2022-12-23T17:04:12.702Z,19.50
2022-12-23T17:06:40.738Z,21.75
2022-12-23T17:09:10.175Z,23.40
2022-12-23T17:11:42.564Z,33.88
2022-12-23T17:14:16.404Z,30.17
2022-12-23T17:16:43.637Z,26.90
2022-12-23T17:19:11.463Z,27.75
2022-12-23T17:21:39.711Z,25.30
2022-12-23T17:24:14.125Z,45.75
2022-12-23T17:26:40.738Z,31.67
2022-12-23T17:29:07.495Z,24.02
2022-12-23T17:31:34.480Z,22.20
2022-12-23T17:34:02.073Z,27.27
2022-12-23T17:36:29.228Z,29.17
2022-12-23T17:38:56.001Z,35.05
2022-12-23T17:41:28.271Z,40.85
2022-12-23T17:43:55.676Z,37.90
2022-12-23T17:46:22.776Z,37.55
2022-12-23T17:48:49.924Z,49.47
2022-12-23T17:51:18.853Z,40.50
2022-12-23T17:53:50.289Z,39.13
2022-12-23T17:56:20.414Z,40.88
2022-12-23T17:58:49.157Z,42.70
2022-12-23T18:01:32.168Z,42.08
2022-12-23T18:04:00.014Z,45.78
2022-12-23T18:06:30.048Z,44.75
2022-12-23T18:08:57.566Z,45.17
2022-12-23T18:11:42.005Z,37.25
2022-12-23T18:14:16.346Z,39.47
2022-12-23T18:16:43.241Z,41.55
2022-12-23T18:19:17.719Z,35.22
2022-12-23T18:21:44.506Z,38.22
2022-12-23T18:24:11.149Z,35.78
2022-12-23T18:26:38.051Z,35.10
2022-12-23T18:29:04.723Z,34.63
2022-12-23T18:31:31.598Z,31.15
2022-12-23T18:33:59.804Z,31.30
2022-12-23T18:36:29.057Z,30.73
2022-12-23T18:38:57.273Z,28.52
2022-12-23T18:41:25.234Z,27.70
2022-12-23T18:43:52.709Z,27.85
2022-12-23T18:46:20.928Z,26.75
2022-12-23T18:48:48.319Z,34.60
2022-12-23T18:51:17.526Z,22.35
2022-12-23T18:53:44.637Z,27.27
2022-12-23T18:56:14.283Z,21.77
2022-12-23T18:58:41.022Z,22.52
2022-12-23T19:01:12.845Z,20.40
2022-12-23T19:03:40.329Z,21.33
2022-12-23T19:06:08.746Z,24.50
2022-12-23T19:08:37.103Z,25.30
2022-12-23T19:11:13.855Z,25.20
2022-12-23T19:13:40.605Z,29.98
2022-12-23T19:16:07.487Z,31.38
2022-12-23T19:18:34.234Z,30.60
2022-12-23T19:21:04.142Z,47.10
2022-12-23T19:23:30.809Z,45.53
2022-12-23T19:25:57.465Z,49.95
2022-12-23T19:28:24.390Z,44.00
2022-12-23T19:30:51.154Z,44.30
2022-12-23T19:33:17.943Z,39.58
2022-12-23T19:35:44.732Z,43.70
2022-12-23T19:38:12.435Z,41.65
2022-12-23T19:40:40.053Z,36.67
2022-12-23T19:43:07.199Z,39.30
2022-12-23T19:45:34.033Z,35.15
2022-12-23T19:48:00.667Z,37.20
2022-12-23T19:50:28.219Z,34.42
2022-12-23T19:52:56.448Z,35.00
2022-12-23T19:55:24.036Z,29.98
2022-12-23T19:57:51.791Z,31.83
2022-12-23T20:00:18.619Z,33.42
2022-12-23T20:02:45.311Z,31.20
2022-12-23T20:05:12.029Z,31.25
2022-12-23T20:07:38.793Z,21.20
2022-12-23T20:10:06.601Z,32.50
2022-12-23T20:12:33.283Z,17.08
2022-12-23T20:14:59.921Z,24.95
2022-12-23T20:17:26.705Z,15.40
2022-12-23T20:19:53.354Z,18.80
2022-12-23T20:22:20.079Z,15.45
2022-12-23T20:24:46.696Z,18.40
2022-12-23T20:27:15.636Z,12.35
2022-12-23T20:29:42.765Z,21.95
2022-12-23T20:32:12.611Z,14.07
2022-12-23T20:34:40.318Z,13.98
2022-12-23T20:37:07.858Z,12.10
2022-12-23T20:39:34.796Z,12.48
2022-12-23T20:42:01.455Z,15.57
2022-12-23T20:44:36.862Z,14.60
2022-12-23T20:47:06.098Z,17.13
2022-12-23T20:49:33.010Z,16.08
2022-12-23T20:51:59.817Z,11.30
2022-12-23T20:54:32.767Z,16.13
2022-12-23T20:57:04.692Z,26.38
2022-12-23T20:59:31.316Z,34.47
2022-12-23T21:01:59.314Z,24.10
2022-12-23T21:04:26.547Z,24.00
2022-12-23T21:06:53.308Z,27.02
2022-12-23T21:09:20.059Z,25.00
2022-12-23T21:11:47.747Z,22.67
2022-12-23T21:14:15.167Z,21.25
2022-12-23T21:16:42.048Z,21.83
2022-12-23T21:19:13.683Z,16.50
2022-12-23T21:21:40.320Z,18.02
2022-12-23T21:24:07.219Z,20.00
2022-12-23T21:26:34.701Z,21.25
2022-12-23T21:29:04.116Z,17.77
2022-12-23T21:31:32.550Z,19.80
2022-12-23T21:33:59.323Z,20.25
2022-12-23T21:36:30.998Z,22.13
2022-12-23T21:38:59.230Z,20.17
2022-12-23T21:41:29.325Z,23.08
2022-12-23T21:43:57.948Z,21.55
2022-12-23T21:46:25.772Z,7.57
2022-12-23T21:48:55.149Z,5.38
2022-12-23T21:51:25.779Z,3.92
2022-12-23T21:53:55.021Z,4.40
2022-12-23T21:56:25.230Z,4.63
2022-12-23T21:59:01.893Z,5.20
2022-12-23T22:01:29.306Z,5.40
2022-12-23T22:03:56.976Z,5.20
2022-12-23T22:06:27.412Z,4.60
2022-12-23T22:08:55.298Z,3.17
2022-12-23T22:11:25.447Z,2.60
2022-12-23T22:13:52.876Z,2.10
2022-12-23T22:16:22.910Z,1.80
2022-12-23T22:18:50.700Z,1.45
2022-12-23T22:21:20.412Z,0.95
2022-12-23T22:23:48.024Z,1.00
2022-12-23T22:26:22.315Z,0.77
2022-12-23T22:28:51.163Z,0.50
2022-12-23T22:31:19.556Z,0.40
2022-12-23T22:33:46.524Z,0.73
2022-12-23T22:36:14.843Z,0.80
2022-12-23T22:38:43.052Z,0.47
2022-12-23T22:41:10.789Z,0.55
2022-12-23T22:43:37.767Z,0.38
2022-12-23T22:46:05.522Z,0.73
2022-12-23T22:48:32.530Z,0.68
2022-12-23T22:51:13.021Z,0.55
2022-12-23T22:53:39.693Z,0.40
2022-12-23T22:56:07.089Z,0.35
2022-12-23T22:58:34.153Z,0.43
2022-12-23T23:01:01.414Z,0.45
2022-12-23T23:03:28.574Z,0.40
2022-12-23T23:06:07.975Z,0.35
2022-12-23T23:08:35.068Z,0.68
2022-12-23T23:11:04.595Z,0.50
2022-12-23T23:13:33.918Z,0.25
2022-12-23T23:16:01.506Z,0.40
2022-12-23T23:18:29.591Z,0.43
2022-12-23T23:20:56.571Z,0.60
2022-12-23T23:23:23.304Z,0.43
2022-12-23T23:25:50.019Z,0.50
2022-12-23T23:28:16.928Z,0.43
2022-12-23T23:30:43.954Z,0.50
2022-12-23T23:33:10.878Z,0.77
2022-12-23T23:35:37.773Z,0.70
2022-12-23T23:38:04.440Z,0.80
2022-12-23T23:40:31.355Z,0.40
2022-12-23T23:42:58.040Z,0.93
2022-12-23T23:45:24.905Z,0.30
2022-12-23T23:47:51.616Z,0.45
2022-12-23T23:50:18.330Z,0.40
2022-12-23T23:52:45.089Z,0.50
2022-12-23T23:55:12.075Z,0.20
2022-12-23T23:57:38.911Z,0.50
